Time;durP1;ratioP1;P1;durP2;ratioP2;P2;SDS_P1;SDS_P2;PMS_P1;PMS_P2;Temp;Humidity;BMP_temperature;BMP_pressure;BME280_temperature;BME280_humidity;BME280_pressure;Samples;Min_cycle;Max_cycle;Signal;HPM_P1;HPM_P2
2022/07/11 00:02:19;;;;;;;6.38;2.60;;;;;;;;;;5011824;28;20476;-83
2022/07/11 00:05:16;;;;;;;;;;;;;;;;;;;;;
2022/07/11 00:07:34;;;;;;;7.15;2.40;;;16.10;99.90;;;;;;5012816;28;20156;-83
2022/07/11 00:10:02;;;;;;;7.07;2.88;;;;;;;;;;5000289;28;20050;-83
2022/07/11 00:12:30;;;;;;;7.43;2.50;;;16.10;99.90;;;;;;5033949;28;20053;-83
2022/07/11 00:14:56;;;;;;;7.10;2.70;;;;;;;;;;5016062;28;20045;-83
2022/07/11 00:17:26;;;;;;;8.50;2.63;;;;;;;;;;5034172;28;20045;-83
2022/07/11 00:19:55;;;;;;;7.05;2.60;;;;;;;;;;5033047;28;20046;-83
2022/07/11 00:22:29;;;;;;;8.55;2.88;;;16.00;99.90;;;;;;5033591;28;20060;-83
2022/07/11 00:24:55;;;;;;;6.30;2.60;;;;;;;;;;5033772;28;20061;-84
2022/07/11 00:27:21;;;;;;;6.57;2.70;;;;;;;;;;5015822;28;20164;-83
2022/07/11 00:30:02;;;;;;;8.25;2.90;;;16.00;99.90;;;;;;5016261;28;20084;-83
2022/07/11 00:32:31;;;;;;;6.50;2.70;;;15.90;99.90;;;;;;5033695;28;20046;-83
2022/07/11 00:35:15;;;;;;;5.80;2.70;;;15.90;99.90;;;;;;5033676;28;20567;-83
2022/07/11 00:37:43;;;;;;;9.25;2.97;;;15.90;99.90;;;;;;5033576;28;20057;-83
2022/07/11 00:40:09;;;;;;;5.40;2.55;;;15.20;99.90;;;;;;4999753;28;20110;-83
2022/07/11 00:42:38;;;;;;;9.80;2.70;;;15.90;99.90;;;;;;5033226;28;20120;-83
2022/07/11 00:45:07;;;;;;;5.28;2.88;;;15.90;99.90;;;;;;5033571;28;20404;-83
2022/07/11 00:47:33;;;;;;;11.35;2.90;;;;;;;;;;5034149;28;20058;-83
2022/07/11 00:50:08;;;;;;;7.97;3.22;;;15.90;99.90;;;;;;5033730;28;20049;-83
2022/07/11 00:52:57;;;;;;;7.63;2.78;;;15.90;99.90;;;;;;5033421;28;20045;-83
2022/07/11 00:55:46;;;;;;;9.25;2.83;;;15.80;99.90;;;;;;5002513;28;20107;-83
2022/07/11 00:58:15;;;;;;;8.18;2.80;;;15.90;99.90;;;;;;4962603;28;20408;-83
2022/07/11 01:00:53;;;;;;;7.18;2.92;;;15.80;99.90;;;;;;5110168;23;20043;-57
2022/07/11 01:03:18;;;;;;;7.45;2.83;;;15.90;99.90;;;;;;5033242;28;20081;-57
2022/07/11 01:05:44;;;;;;;7.40;2.90;;;15.70;99.90;;;;;;5041222;28;20073;-57
2022/07/11 01:08:10;;;;;;;5.70;2.90;;;15.80;99.90;;;;;;5050231;28;20057;-57
2022/07/11 01:10:36;;;;;;;9.95;3.10;;;16.00;99.90;;;;;;5036743;28;20408;-57
2022/07/11 01:13:02;;;;;;;8.68;2.72;;;;;;;;;;5031213;28;20127;-57
2022/07/11 01:15:28;;;;;;;7.97;3.03;;;16.00;99.90;;;;;;5031632;28;20095;-57
2022/07/11 01:17:54;;;;;;;9.25;2.97;;;15.80;99.90;;;;;;5035264;28;20048;-57
2022/07/11 01:20:22;;;;;;;7.88;3.13;;;;;;;;;;5051323;28;20427;-57
2022/07/11 01:22:52;;;;;;;8.77;3.30;;;16.10;99.90;;;;;;5051523;28;20131;-57
2022/07/11 01:25:31;;;;;;;5.38;2.80;;;15.80;99.90;;;;;;5051026;28;20132;-57
2022/07/11 01:28:08;;;;;;;8.45;2.95;;;15.90;99.90;;;;;;5033597;28;20399;-57
2022/07/11 01:30:34;;;;;;;9.18;3.22;;;16.00;99.90;;;;;;5051086;28;20045;-61
2022/07/11 01:33:00;;;;;;;11.02;3.50;;;16.00;99.90;;;;;;5054580;28;20092;-61
2022/07/11 01:35:28;;;;;;;8.07;2.67;;;15.80;99.90;;;;;;5047104;28;20326;-61
2022/07/11 01:37:54;;;;;;;7.00;3.13;;;15.50;99.90;;;;;;5035377;28;20045;-62
2022/07/11 01:40:23;;;;;;;8.35;3.10;;;16.20;99.90;;;;;;5034944;28;20052;-62
2022/07/11 01:42:50;;;;;;;8.85;2.95;;;15.80;99.90;;;;;;5034960;28;20045;-62
2022/07/11 01:45:16;;;;;;;7.93;2.72;;;15.60;99.90;;;;;;5034823;28;20038;-62
2022/07/11 01:47:42;;;;;;;7.75;3.00;;;15.80;99.90;;;;;;5034877;28;20480;-62
2022/07/11 01:50:08;;;;;;;6.55;3.03;;;16.00;99.90;;;;;;5034926;28;20045;-62
2022/07/11 01:52:34;;;;;;;9.05;3.05;;;15.50;99.90;;;;;;5034586;28;20448;-62
2022/07/11 01:54:59;;;;;;;8.80;2.90;;;15.90;99.90;;;;;;5017213;28;20048;-62
2022/07/11 01:57:25;;;;;;;5.35;2.72;;;;;;;;;;5033457;28;20492;-62
2022/07/11 01:59:51;;;;;;;7.82;2.70;;;15.40;99.90;;;;;;5034509;28;20054;-61
2022/07/11 02:02:17;;;;;;;6.78;3.00;;;15.20;99.90;;;;;;5032481;28;20212;-61
2022/07/11 02:04:43;;;;;;;8.55;3.03;;;;;;;;;;5034401;28;20492;-61
2022/07/11 02:07:11;;;;;;;6.43;2.63;;;15.40;99.90;;;;;;5033552;28;20053;-61
2022/07/11 02:09:37;;;;;;;6.30;2.60;;;15.80;99.90;;;;;;5042855;28;20053;-61
2022/07/11 02:12:04;;;;;;;9.93;2.90;;;15.70;99.90;;;;;;5054138;28;20056;-61
2022/07/11 02:14:30;;;;;;;8.88;2.70;;;15.80;99.90;;;;;;5054100;28;20072;-61
2022/07/11 02:16:58;;;;;;;8.05;2.92;;;15.80;99.90;;;;;;5054005;28;20131;-61
2022/07/11 02:19:25;;;;;;;6.00;2.72;;;;;;;;;;5054396;28;20060;-61
2022/07/11 02:21:51;;;;;;;9.48;3.10;;;15.70;99.90;;;;;;5054044;28;20041;-62
2022/07/11 02:24:18;;;;;;;7.85;2.78;;;15.40;99.90;;;;;;5054379;28;20154;-61
2022/07/11 02:26:44;;;;;;;6.50;2.78;;;15.70;99.90;;;;;;5053911;28;20052;-61
2022/07/11 02:29:10;;;;;;;7.32;2.67;;;15.60;99.90;;;;;;5054027;28;20041;-61
2022/07/11 02:31:35;;;;;;;6.80;2.75;;;15.60;99.90;;;;;;5054099;28;20045;-61
2022/07/11 02:34:01;;;;;;;6.65;2.50;;;15.40;99.90;;;;;;5053975;28;20049;-61
2022/07/11 02:36:26;;;;;;;4.60;2.50;;;15.60;99.90;;;;;;5053138;28;20127;-61
2022/07/11 02:38:52;;;;;;;5.47;2.35;;;15.60;99.90;;;;;;5053496;28;20052;-62
2022/07/11 02:41:19;;;;;;;7.30;2.88;;;15.60;99.90;;;;;;5053697;28;20049;-61
2022/07/11 02:43:45;;;;;;;6.82;2.67;;;15.40;99.90;;;;;;5052746;28;20451;-61
2022/07/11 02:46:10;;;;;;;6.13;2.85;;;15.60;99.90;;;;;;5053565;28;20495;-61
2022/07/11 02:48:43;;;;;;;4.72;3.00;;;16.00;99.90;;;;;;5054099;28;20455;-62
2022/07/11 02:51:08;;;;;;;6.40;3.10;;;15.60;99.90;;;;;;5053486;28;20091;-61
2022/07/11 02:53:34;;;;;;;6.05;2.70;;;15.20;99.90;;;;;;5035983;28;20045;-61
2022/07/11 02:56:00;;;;;;;7.70;3.13;;;15.70;99.90;;;;;;5053426;28;20048;-61
2022/07/11 02:58:26;;;;;;;8.77;3.17;;;15.40;99.90;;;;;;5053212;28;20412;-61
2022/07/11 03:00:53;;;;;;;6.72;3.10;;;15.40;99.90;;;;;;5053733;28;20123;-57
2022/07/11 03:03:19;;;;;;;6.50;3.00;;;15.70;99.90;;;;;;5031881;28;20060;-57
2022/07/11 03:05:44;;;;;;;4.00;2.83;;;15.50;99.90;;;;;;5048829;28;20415;-57
2022/07/11 03:08:10;;;;;;;5.38;2.80;;;15.40;99.90;;;;;;5053262;28;20056;-57
2022/07/11 03:10:35;;;;;;;9.65;3.10;;;15.60;99.90;;;;;;5035678;28;20504;-57
2022/07/11 03:13:04;;;;;;;6.60;3.15;;;15.60;99.90;;;;;;5052805;28;20049;-57
2022/07/11 03:15:30;;;;;;;7.85;3.55;;;15.40;99.90;;;;;;5053056;28;20115;-61
2022/07/11 03:17:56;;;;;;;6.97;3.10;;;15.80;99.90;;;;;;5052990;28;20040;-61
2022/07/11 03:20:25;;;;;;;7.20;3.30;;;15.70;99.90;;;;;;5052989;28;20122;-61
2022/07/11 03:22:51;;;;;;;7.18;3.20;;;15.30;99.90;;;;;;5053390;28;20049;-61
2022/07/11 03:25:17;;;;;;;5.75;3.08;;;15.60;99.90;;;;;;5052764;28;20052;-60
2022/07/11 03:27:42;;;;;;;6.53;3.13;;;15.50;99.90;;;;;;5052739;28;20040;-61
2022/07/11 03:30:08;;;;;;;6.25;3.35;;;15.40;99.90;;;;;;5052947;28;20053;-61
2022/07/11 03:32:34;;;;;;;5.68;3.08;;;15.50;99.90;;;;;;5052740;28;20045;-61
2022/07/11 03:37:45;;;;;;;4.25;2.80;;;15.80;99.90;;;;;;5052581;28;20045;-62
2022/07/11 03:40:11;;;;;;;5.10;3.20;;;15.60;99.90;;;;;;5052333;28;20072;-60
2022/07/11 03:42:37;;;;;;;3.78;2.90;;;15.50;99.90;;;;;;5052756;28;20508;-61
2022/07/11 03:45:04;;;;;;;4.78;3.05;;;15.50;99.90;;;;;;5052560;28;20504;-60
2022/07/11 03:47:29;;;;;;;4.85;2.90;;;15.60;99.90;;;;;;5017929;28;20427;-61
2022/07/11 03:49:57;;;;;;;4.18;2.90;;;15.70;99.90;;;;;;5052248;28;20068;-61
2022/07/11 03:52:23;;;;;;;4.18;2.97;;;15.70;99.90;;;;;;5052290;28;20084;-61
2022/07/11 03:54:48;;;;;;;3.38;2.83;;;15.60;99.90;;;;;;5051201;28;20080;-61
2022/07/11 03:57:16;;;;;;;7.22;3.38;;;15.70;99.90;;;;;;5017664;28;20143;-61
2022/07/11 03:59:41;;;;;;;3.35;2.60;;;16.10;99.90;;;;;;5051992;28;20550;-61
2022/07/11 04:02:07;;;;;;;4.05;2.65;;;15.70;99.90;;;;;;5051876;28;20140;-61
2022/07/11 04:04:33;;;;;;;3.63;2.80;;;15.60;99.90;;;;;;5051935;28;20066;-61
2022/07/11 04:07:00;;;;;;;3.45;3.00;;;15.50;99.90;;;;;;5034185;28;20480;-61
2022/07/11 04:09:26;;;;;;;4.13;2.80;;;15.60;99.90;;;;;;5052065;28;20052;-61
2022/07/11 04:11:52;;;;;;;3.72;3.00;;;15.20;99.90;;;;;;5052177;28;20049;-60
2022/07/11 04:14:18;;;;;;;5.22;3.97;;;;;;;;;;5051909;28;20106;-61
2022/07/11 04:16:44;;;;;;;5.32;4.35;;;15.50;99.90;;;;;;5051878;28;20103;-64
2022/07/11 04:19:10;;;;;;;7.63;4.80;;;15.70;99.90;;;;;;5051733;28;20518;-61
2022/07/11 04:21:35;;;;;;;7.40;4.88;;;15.30;99.90;;;;;;5051895;28;20041;-61
2022/07/11 04:24:02;;;;;;;7.97;4.70;;;18.60;99.90;;;;;;5051622;28;20111;-61
2022/07/11 04:26:28;;;;;;;8.18;4.72;;;;;;;;;;5051861;28;20167;-61
2022/07/11 04:28:54;;;;;;;8.25;4.85;;;16.00;99.90;;;;;;5051805;28;20041;-61
2022/07/11 04:31:23;;;;;;;9.43;5.10;;;15.50;99.90;;;;;;5051485;28;20051;-61
2022/07/11 04:33:48;;;;;;;9.20;4.90;;;15.60;99.90;;;;;;5052041;28;20041;-61
2022/07/11 04:36:14;;;;;;;10.57;5.00;;;15.60;99.90;;;;;;5051258;28;20063;-62
2022/07/11 04:38:43;;;;;;;8.13;4.85;;;15.80;99.90;;;;;;5051351;28;20056;-61
2022/07/11 04:41:09;;;;;;;7.53;4.95;;;15.50;99.90;;;;;;5051540;28;20048;-62
2022/07/11 04:43:36;;;;;;;6.75;4.80;;;;;;;;;;5051518;28;20087;-61
2022/07/11 04:46:07;;;;;;;9.70;4.90;;;15.80;99.90;;;;;;5051327;28;20056;-61
2022/07/11 04:48:33;;;;;;;9.05;4.85;;;15.70;99.90;;;;;;5051363;28;20041;-61
2022/07/11 04:50:59;;;;;;;8.00;5.07;;;15.70;99.90;;;;;;5033335;28;20048;-61
2022/07/11 04:53:24;;;;;;;10.57;4.80;;;15.80;99.90;;;;;;5031443;28;20047;-61
2022/07/11 04:55:50;;;;;;;10.57;4.68;;;16.00;99.90;;;;;;5042135;28;20558;-62
2022/07/11 04:58:17;;;;;;;9.75;4.70;;;15.90;99.90;;;;;;5024434;28;20530;-61
2022/07/11 05:00:43;;;;;;;11.93;5.05;;;15.90;99.90;;;;;;5041770;28;20048;-61
2022/07/11 05:03:09;;;;;;;8.02;4.82;;;15.90;99.90;;;;;;5037960;28;20457;-61
2022/07/11 05:05:35;;;;;;;7.03;4.45;;;16.00;99.90;;;;;;5037436;28;20106;-61
2022/07/11 05:08:00;;;;;;;5.50;4.03;;;15.60;99.90;;;;;;5040383;28;20124;-61
2022/07/11 05:10:26;;;;;;;8.45;4.63;;;;;;;;;;5029392;28;20049;-60
2022/07/11 05:12:52;;;;;;;8.02;4.20;;;16.20;99.90;;;;;;5050435;28;20052;-61
2022/07/11 05:15:18;;;;;;;5.28;3.72;;;16.50;99.90;;;;;;5049531;28;20049;-61
2022/07/11 05:17:43;;;;;;;7.68;3.60;;;16.20;99.90;;;;;;5031140;28;20499;-61
2022/07/11 05:20:14;;;;;;;5.63;3.45;;;;;;;;;;5013235;28;20184;-61
2022/07/11 05:22:41;;;;;;;6.05;3.40;;;16.20;99.90;;;;;;5030976;28;20050;-61
2022/07/11 05:25:07;;;;;;;5.50;3.38;;;16.60;99.90;;;;;;5031422;28;20049;-61
2022/07/11 05:27:32;;;;;;;4.63;3.22;;;16.60;99.90;;;;;;5030689;28;20049;-61
2022/07/11 05:29:58;;;;;;;5.70;3.45;;;16.30;99.90;;;;;;5031272;28;20511;-61
2022/07/11 05:32:24;;;;;;;5.22;3.40;;;15.90;99.90;;;;;;5030935;28;20103;-61
2022/07/11 05:34:49;;;;;;;5.15;3.45;;;16.50;99.90;;;;;;5031225;28;20045;-57
2022/07/11 05:37:15;;;;;;;5.88;3.60;;;16.50;99.90;;;;;;5030862;28;20369;-57
2022/07/11 05:39:41;;;;;;;6.40;3.60;;;16.60;99.90;;;;;;5031287;28;20042;-57
2022/07/11 05:42:07;;;;;;;6.20;3.88;;;16.60;99.90;;;;;;5031149;28;20042;-57
2022/07/11 05:44:33;;;;;;;4.65;3.20;;;16.30;99.90;;;;;;5013521;28;20052;-57
2022/07/11 05:47:00;;;;;;;7.50;3.70;;;16.50;99.90;;;;;;5013206;28;20124;-57
2022/07/11 05:49:26;;;;;;;5.03;3.00;;;16.40;99.90;;;;;;5030663;28;20049;-57
2022/07/11 05:51:54;;;;;;;6.43;3.38;;;16.70;99.90;;;;;;5030894;28;20508;-57
2022/07/11 05:54:21;;;;;;;5.25;3.05;;;16.10;99.90;;;;;;5031097;28;20050;-57
2022/07/11 05:56:47;;;;;;;3.58;2.70;;;16.10;99.90;;;;;;5030812;28;20187;-57
2022/07/11 05:59:13;;;;;;;4.97;2.70;;;16.20;99.90;;;;;;5030875;28;20543;-57
2022/07/11 06:01:40;;;;;;;3.45;2.25;;;16.00;99.90;;;;;;5030403;28;20345;-57
2022/07/11 06:04:05;;;;;;;6.03;2.40;;;16.60;99.90;;;;;;5030865;28;20485;-56
2022/07/11 06:06:31;;;;;;;3.47;2.20;;;16.50;99.90;;;;;;5030961;28;20059;-57
2022/07/11 06:08:57;;;;;;;2.78;1.92;;;17.20;99.90;;;;;;5013163;28;20060;-56
2022/07/11 06:11:25;;;;;;;3.10;1.90;;;17.10;99.90;;;;;;5030874;28;20049;-57
2022/07/11 06:13:51;;;;;;;3.50;1.88;;;17.30;99.90;;;;;;5030817;28;20123;-57
2022/07/11 06:16:17;;;;;;;3.00;1.80;;;16.80;99.90;;;;;;5030845;28;20042;-56
2022/07/11 06:18:43;;;;;;;2.20;1.60;;;;;;;;;;5032048;28;20075;-57
2022/07/11 06:21:11;;;;;;;2.22;1.70;;;17.40;99.90;;;;;;5034222;28;20124;-57
2022/07/11 06:23:36;;;;;;;2.55;1.60;;;17.50;99.90;;;;;;5034220;28;20408;-57
2022/07/11 06:26:03;;;;;;;3.20;1.63;;;17.40;99.90;;;;;;5016250;28;20057;-57
2022/07/11 06:28:29;;;;;;;3.45;1.73;;;18.00;99.90;;;;;;5033856;28;20552;-57
2022/07/11 06:30:55;;;;;;;3.40;1.80;;;17.30;99.90;;;;;;5033656;28;20400;-57
2022/07/11 06:33:21;;;;;;;3.35;1.40;;;17.30;99.90;;;;;;5033978;28;20060;-57
2022/07/11 06:35:47;;;;;;;1.77;1.40;;;17.10;99.90;;;;;;5034171;28;20056;-57
2022/07/11 06:38:15;;;;;;;3.22;1.60;;;16.60;99.90;;;;;;5034107;28;20041;-57
2022/07/11 06:40:45;;;;;;;1.95;1.40;;;17.60;99.90;;;;;;5033566;28;20049;-57
2022/07/11 06:43:11;;;;;;;2.03;1.52;;;17.20;99.90;;;;;;5033659;28;20176;-57
2022/07/11 06:45:39;;;;;;;3.22;1.65;;;17.30;99.90;;;;;;5033750;28;20061;-57
2022/07/11 06:48:06;;;;;;;3.10;1.60;;;17.30;99.90;;;;;;5033225;28;20042;-57
2022/07/11 06:50:32;;;;;;;1.60;1.30;;;17.40;99.90;;;;;;5052525;28;20049;-57
2022/07/11 06:52:59;;;;;;;2.53;1.25;;;17.30;99.90;;;;;;5040012;28;20059;-57
2022/07/11 06:55:25;;;;;;;3.67;1.42;;;17.30;99.90;;;;;;5041367;28;20064;-57
2022/07/11 06:57:50;;;;;;;2.97;1.40;;;17.30;99.90;;;;;;5044645;28;20041;-57
2022/07/11 07:00:19;;;;;;;2.17;1.20;;;17.20;99.90;;;;;;5044926;28;20052;-57
2022/07/11 07:02:45;;;;;;;2.60;1.27;;;17.20;99.90;;;;;;5042124;28;20049;-57
2022/07/11 07:05:11;;;;;;;2.65;1.20;;;17.10;99.90;;;;;;5034673;28;20050;-57
2022/07/11 07:07:37;;;;;;;4.05;1.40;;;17.30;99.90;;;;;;5032595;28;20053;-57
2022/07/11 07:10:03;;;;;;;2.28;1.33;;;17.30;99.90;;;;;;5032795;28;20056;-56
2022/07/11 07:12:33;;;;;;;2.30;1.35;;;;;;;;;;5031534;28;20049;-57
2022/07/11 07:15:00;;;;;;;2.13;1.20;;;17.10;99.90;;;;;;5032640;28;20064;-57
2022/07/11 07:17:26;;;;;;;2.33;1.40;;;17.00;99.90;;;;;;5032227;28;20042;-57
2022/07/11 07:19:51;;;;;;;2.20;1.50;;;17.10;99.90;;;;;;5031320;28;20056;-57
2022/07/11 07:22:17;;;;;;;1.92;1.38;;;17.10;99.90;;;;;;5024270;28;20049;-57
2022/07/11 07:24:45;;;;;;;2.50;1.30;;;17.20;99.90;;;;;;5031654;28;20133;-57
2022/07/11 07:27:11;;;;;;;2.22;1.30;;;16.90;99.90;;;;;;5032086;28;20124;-57
2022/07/11 07:29:40;;;;;;;4.65;1.30;;;17.70;99.90;;;;;;5013565;28;20192;-57
2022/07/11 07:32:06;;;;;;;4.57;1.35;;;17.00;99.90;;;;;;5031963;28;20392;-57
2022/07/11 07:34:32;;;;;;;2.60;1.35;;;17.40;99.90;;;;;;5043505;28;20405;-57
2022/07/11 07:36:59;;;;;;;1.50;1.20;;;17.60;99.90;;;;;;5052159;28;20441;-57
2022/07/11 07:39:25;;;;;;;2.70;1.40;;;18.10;99.90;;;;;;5051515;28;20044;-57
2022/07/11 07:41:50;;;;;;;2.10;1.30;;;18.10;99.90;;;;;;5051548;28;20066;-57
2022/07/11 07:44:18;;;;;;;2.00;1.05;;;18.60;99.90;;;;;;5051576;28;20045;-57
2022/07/11 07:46:44;;;;;;;2.15;1.00;;;19.60;99.90;;;;;;5051170;28;20040;-57
2022/07/11 07:49:10;;;;;;;1.50;0.93;;;18.70;99.90;;;;;;5052196;28;20052;-57
2022/07/11 07:51:36;;;;;;;2.67;1.00;;;18.90;99.90;;;;;;5050810;28;20087;-58
2022/07/11 07:54:02;;;;;;;2.60;0.88;;;18.90;99.90;;;;;;5051777;28;20052;-58
2022/07/11 07:56:28;;;;;;;0.80;0.73;;;18.90;99.90;;;;;;5051321;28;20178;-58
2022/07/11 07:58:54;;;;;;;2.22;0.80;;;18.40;99.90;;;;;;5051472;28;20055;-58
2022/07/11 08:01:35;;;;;;;1.08;0.75;;;18.20;99.90;;;;;;5051332;28;20088;-59
2022/07/11 08:04:10;;;;;;;2.58;0.80;;;19.00;99.90;;;;;;5035558;28;20052;-59
2022/07/11 08:06:36;;;;;;;0.95;0.60;;;18.90;99.90;;;;;;5051931;28;20049;-59
2022/07/11 08:09:04;;;;;;;1.27;0.90;;;18.90;99.90;;;;;;5051657;28;20051;-59
2022/07/11 08:11:30;;;;;;;2.30;0.80;;;18.90;99.90;;;;;;5033458;28;20204;-59
2022/07/11 08:13:57;;;;;;;1.63;0.57;;;18.90;99.90;;;;;;5051188;28;20049;-58
2022/07/11 08:16:23;;;;;;;1.05;0.70;;;18.70;99.90;;;;;;5033994;28;20457;-58
2022/07/11 08:18:49;;;;;;;1.88;0.98;;;18.80;99.90;;;;;;5033860;28;20084;-59
2022/07/11 08:21:15;;;;;;;1.00;0.80;;;18.80;99.90;;;;;;5051617;28;20076;-56
2022/07/11 08:23:41;;;;;;;2.55;0.63;;;19.10;99.90;;;;;;5051934;28;20045;-58
2022/07/11 08:26:07;;;;;;;0.95;0.63;;;18.30;99.90;;;;;;5051693;28;20049;-57
2022/07/11 08:28:32;;;;;;;0.70;0.55;;;19.10;99.90;;;;;;5051776;28;20461;-57
2022/07/11 08:30:58;;;;;;;1.02;0.60;;;18.80;99.90;;;;;;5051861;28;20060;-57
2022/07/11 08:33:24;;;;;;;0.73;0.57;;;;;;;;;;5051249;28;20413;-58
2022/07/11 08:35:50;;;;;;;1.35;0.75;;;19.30;99.90;;;;;;5051660;28;20372;-57
2022/07/11 08:38:15;;;;;;;1.48;0.88;;;19.10;99.90;;;;;;5051498;28;20045;-58
2022/07/11 08:40:42;;;;;;;1.40;0.60;;;19.90;99.90;;;;;;5051073;28;20041;-58
2022/07/11 08:43:16;;;;;;;1.65;0.65;;;18.50;99.90;;;;;;5051127;28;20049;-58
2022/07/11 08:45:43;;;;;;;1.83;0.80;;;19.10;99.90;;;;;;5051095;28;20508;-58
2022/07/11 08:48:09;;;;;;;1.92;0.63;;;18.70;99.90;;;;;;5051537;28;20060;-58
2022/07/11 08:50:36;;;;;;;0.98;0.50;;;19.00;99.90;;;;;;5050201;28;20048;-58
2022/07/11 08:53:05;;;;;;;0.70;0.50;;;19.40;99.90;;;;;;5051178;28;20075;-58
2022/07/11 08:55:31;;;;;;;0.98;0.68;;;19.20;99.90;;;;;;5051339;28;20106;-57
2022/07/11 08:57:56;;;;;;;1.70;0.70;;;19.10;99.90;;;;;;5051218;28;20040;-58
2022/07/11 09:00:23;;;;;;;2.70;0.70;;;19.10;99.90;;;;;;5051272;28;20049;-58
2022/07/11 09:02:49;;;;;;;2.00;0.63;;;19.10;99.90;;;;;;5051153;28;20063;-58
2022/07/11 09:05:15;;;;;;;0.98;0.73;;;19.10;99.90;;;;;;5051129;28;20080;-58
2022/07/11 09:07:46;;;;;;;0.50;0.47;;;18.90;99.90;;;;;;5050987;28;20103;-58
2022/07/11 09:10:13;;;;;;;0.93;0.75;;;19.20;99.90;;;;;;5050778;28;20057;-58
2022/07/11 09:13:02;;;;;;;1.10;0.60;;;19.40;99.90;;;;;;5051539;28;20333;-58
2022/07/11 09:15:33;;;;;;;0.88;0.60;;;19.70;99.90;;;;;;5050803;28;20163;-59
2022/07/11 09:17:59;;;;;;;0.70;0.50;;;19.70;99.90;;;;;;5050982;28;20083;-59
2022/07/11 09:20:24;;;;;;;0.45;0.40;;;19.80;99.90;;;;;;5051073;28;20045;-58
2022/07/11 09:25:42;;;;;;;0.38;0.30;;;19.70;99.90;;;;;;5051094;28;20140;-59
2022/07/11 09:28:08;;;;;;;0.98;0.50;;;19.80;99.90;;;;;;5050929;28;20041;-58
2022/07/11 09:30:43;;;;;;;0.82;0.30;;;19.60;99.90;;;;;;5051004;28;20051;-59
2022/07/11 09:33:12;;;;;;;2.97;0.70;;;19.40;99.90;;;;;;5050941;28;20427;-61
2022/07/11 09:35:41;;;;;;;0.45;0.45;;;19.70;99.90;;;;;;5051056;28;20045;-59
2022/07/11 09:38:13;;;;;;;0.40;0.20;;;19.80;99.90;;;;;;5046885;28;20037;-59
2022/07/11 09:40:44;;;;;;;0.98;0.30;;;20.30;99.90;;;;;;5037607;28;20049;-62
2022/07/11 09:43:10;;;;;;;1.02;0.52;;;19.10;99.90;;;;;;5030962;28;20077;-58
2022/07/11 09:45:36;;;;;;;0.57;0.57;;;20.20;99.90;;;;;;5050140;28;20120;-59
2022/07/11 09:48:12;;;;;;;0.73;0.60;;;20.40;99.90;;;;;;5051018;28;20052;-59
2022/07/11 09:50:39;;;;;;;1.50;0.75;;;20.40;99.90;;;;;;5050531;28;20052;-57
2022/07/11 09:53:10;;;;;;;1.95;0.60;;;20.20;99.90;;;;;;5052228;28;20091;-57
2022/07/11 09:55:38;;;;;;;1.35;0.65;;;20.10;99.90;;;;;;5053016;28;20041;-57
2022/07/11 09:58:09;;;;;;;1.42;0.55;;;19.90;99.90;;;;;;5035804;28;20348;-57
2022/07/11 10:00:36;;;;;;;0.60;0.30;;;19.70;99.90;;;;;;5054384;28;20399;-57
2022/07/11 10:03:03;;;;;;;1.45;0.40;;;19.80;99.90;;;;;;5053982;28;20116;-57
2022/07/11 10:05:29;;;;;;;0.52;0.40;;;19.70;99.90;;;;;;5053953;28;20048;-56
2022/07/11 10:07:58;;;;;;;0.50;0.50;;;19.70;99.90;;;;;;5054153;28;20048;-57
2022/07/11 10:10:28;;;;;;;1.30;0.60;;;19.40;99.90;;;;;;5054310;28;20078;-57
2022/07/11 10:12:55;;;;;;;2.20;0.70;;;20.10;99.90;;;;;;5054064;28;20049;-57
2022/07/11 10:15:33;;;;;;;1.05;0.68;;;19.70;99.90;;;;;;5052820;28;20045;-57
2022/07/11 10:18:31;;;;;;;0.75;0.45;;;19.90;99.90;;;;;;5052713;28;20468;-57
2022/07/11 10:21:05;;;;;;;1.42;0.68;;;19.80;99.90;;;;;;5049835;28;20065;-56
2022/07/11 10:24:06;;;;;;;1.27;0.65;;;19.90;99.90;;;;;;5051340;28;20060;-57
2022/07/11 10:26:58;;;;;;;1.20;0.57;;;20.00;99.90;;;;;;5040518;28;20045;-57
2022/07/11 10:29:54;;;;;;;1.48;0.45;;;20.00;99.90;;;;;;5040080;28;20041;-57
2022/07/11 10:32:20;;;;;;;1.52;0.60;;;19.30;99.90;;;;;;5036112;28;20120;-57
2022/07/11 10:35:06;;;;;;;0.80;0.70;;;20.00;99.90;;;;;;5040335;28;20120;-57
2022/07/11 10:37:51;;;;;;;0.60;0.57;;;19.20;99.90;;;;;;5040743;28;20049;-58
2022/07/11 10:40:45;;;;;;;1.48;0.80;;;20.80;99.90;;;;;;5032763;28;20056;-58
2022/07/11 10:43:11;;;;;;;1.02;0.60;;;20.50;99.90;;;;;;5033597;28;20535;-58
2022/07/11 10:45:50;;;;;;;2.20;0.80;;;20.40;99.90;;;;;;5033718;28;20049;-58
2022/07/11 10:48:17;;;;;;;0.80;0.55;;;20.30;99.90;;;;;;5033465;28;20045;-58
2022/07/11 10:50:44;;;;;;;2.60;0.77;;;20.40;99.90;;;;;;5032917;28;20504;-58
2022/07/11 10:53:11;;;;;;;1.77;0.80;;;20.10;99.90;;;;;;5032691;28;20049;-58
2022/07/11 10:56:13;;;;;;;2.47;0.98;;;20.00;99.90;;;;;;5015252;28;20050;-58
2022/07/11 10:58:45;;;;;;;1.92;0.85;;;20.00;99.90;;;;;;4952777;29;20059;-58
2022/07/11 11:01:14;;;;;;;1.45;0.70;;;20.00;99.90;;;;;;4952486;29;20051;-58
2022/07/11 11:03:41;;;;;;;2.63;0.88;;;20.20;99.90;;;;;;4952117;28;20055;-58
2022/07/11 11:06:08;;;;;;;0.95;0.82;;;20.00;99.90;;;;;;4952267;29;20099;-57
2022/07/11 11:08:37;;;;;;;1.83;1.10;;;23.70;99.90;;;;;;4952730;29;20048;-58
2022/07/11 11:11:20;;;;;;;0.85;0.80;;;20.40;99.90;;;;;;4952502;29;20691;-58
2022/07/11 11:14:20;;;;;;;0.82;0.80;;;20.90;99.90;;;;;;4936283;29;20071;-58
2022/07/11 11:16:50;;;;;;;0.82;0.70;;;20.90;99.90;;;;;;4952407;29;20043;-58
2022/07/11 11:19:46;;;;;;;1.65;0.90;;;21.20;99.90;;;;;;4952371;29;20403;-58
2022/07/11 11:22:13;;;;;;;1.73;0.80;;;21.30;99.90;;;;;;4952276;29;20174;-58
2022/07/11 11:24:40;;;;;;;1.42;0.65;;;21.50;99.90;;;;;;4952382;29;20568;-58
2022/07/11 11:27:19;;;;;;;1.60;0.93;;;21.60;99.90;;;;;;4952256;29;20403;-58
2022/07/11 11:29:45;;;;;;;0.75;0.60;;;21.50;99.90;;;;;;4952166;29;20136;-58
2022/07/11 11:32:11;;;;;;;1.60;0.55;;;21.50;99.90;;;;;;4952121;29;20058;-58
2022/07/11 11:34:40;;;;;;;1.77;0.80;;;21.40;99.90;;;;;;4981723;28;20234;-58
2022/07/11 11:37:06;;;;;;;1.70;0.70;;;21.40;99.90;;;;;;5031933;28;20060;-58
2022/07/11 11:39:41;;;;;;;1.25;0.80;;;21.40;99.90;;;;;;5032310;28;20045;-58
2022/07/11 11:42:10;;;;;;;0.87;0.60;;;21.60;99.90;;;;;;5032800;28;20046;-62
2022/07/11 11:44:54;;;;;;;0.50;0.50;;;21.60;99.90;;;;;;5032513;28;20291;-63
2022/07/11 11:47:22;;;;;;;1.02;0.70;;;21.90;99.90;;;;;;5032478;28;20054;-63
2022/07/11 11:49:49;;;;;;;0.52;0.43;;;22.40;99.90;;;;;;5032519;28;20053;-63
2022/07/11 11:52:15;;;;;;;0.60;0.60;;;22.00;99.90;;;;;;5032468;28;20050;-63
2022/07/11 11:54:41;;;;;;;0.50;0.50;;;21.80;99.90;;;;;;5032364;28;20134;-63
2022/07/11 11:57:11;;;;;;;2.50;0.60;;;22.00;99.90;;;;;;5032438;28;20444;-63
2022/07/11 11:59:38;;;;;;;2.05;0.80;;;21.90;99.90;;;;;;5032264;28;20115;-63
2022/07/11 12:02:05;;;;;;;1.30;0.70;;;21.80;99.90;;;;;;5031344;28;20050;-62
2022/07/11 12:04:33;;;;;;;1.83;0.80;;;21.60;99.90;;;;;;5031494;28;20045;-62
2022/07/11 12:07:01;;;;;;;1.45;0.70;;;21.30;99.90;;;;;;5032196;28;20041;-63
2022/07/11 12:15:00;;;;;;;0.90;0.63;;;21.20;99.90;;;;;;5031805;28;20057;-62
2022/07/11 12:17:29;;;;;;;1.08;0.68;;;21.10;99.90;;;;;;5031442;28;20041;-57
2022/07/11 12:19:55;;;;;;;0.73;0.50;;;21.20;99.90;;;;;;5031761;28;20611;-57
2022/07/11 12:22:21;;;;;;;0.82;0.65;;;21.40;99.90;;;;;;5032372;28;20402;-57
2022/07/11 12:24:52;;;;;;;0.55;0.55;;;21.60;99.90;;;;;;5032236;28;20045;-58
2022/07/11 12:27:19;;;;;;;0.52;0.52;;;21.70;99.90;;;;;;5031288;28;20049;-58
2022/07/11 12:29:50;;;;;;;1.08;0.63;;;21.60;99.90;;;;;;5031942;28;20072;-58
2022/07/11 12:32:20;;;;;;;7.82;1.30;;;21.60;99.90;;;;;;5031794;28;20049;-57
2022/07/11 12:34:49;;;;;;;0.88;0.63;;;21.60;99.90;;;;;;5032021;28;20405;-58
2022/07/11 12:37:20;;;;;;;1.45;0.80;;;21.60;99.90;;;;;;5031923;28;20053;-57
2022/07/11 12:40:08;;;;;;;1.13;0.60;;;21.20;99.90;;;;;;5031495;28;20072;-57
2022/07/11 12:42:36;;;;;;;1.30;1.10;;;21.90;99.90;;;;;;5031195;28;20053;-57
2022/07/11 12:45:13;;;;;;;0.85;0.57;;;21.70;99.90;;;;;;5030098;28;20049;-57
2022/07/11 12:47:40;;;;;;;0.50;0.40;;;22.10;99.90;;;;;;5013648;28;20049;-58
2022/07/11 12:50:14;;;;;;;1.98;0.38;;;22.00;99.90;;;;;;5030590;28;20045;-58
2022/07/11 12:52:41;;;;;;;0.37;0.37;;;22.00;99.90;;;;;;5031240;28;20045;-59
2022/07/11 12:55:19;;;;;;;0.70;0.50;;;22.10;99.90;;;;;;5031206;28;20272;-58
2022/07/11 12:58:02;;;;;;;3.20;0.63;;;22.20;99.90;;;;;;5014842;28;20381;-58
2022/07/11 13:00:30;;;;;;;1.27;0.68;;;22.10;99.90;;;;;;5029548;28;20049;-59
2022/07/11 13:02:55;;;;;;;1.73;0.60;;;21.70;99.90;;;;;;5022936;28;20058;-58
2022/07/11 13:05:21;;;;;;;1.08;0.60;;;21.90;99.90;;;;;;5031065;28;20159;-59
2022/07/11 13:10:50;;;;;;;0.50;0.50;;;21.70;99.90;;;;;;5031197;28;20119;-58
2022/07/11 13:13:17;;;;;;;1.75;0.70;;;21.10;99.90;;;;;;5031035;28;20057;-58
2022/07/11 13:15:45;;;;;;;1.23;0.90;;;21.60;99.90;;;;;;5013297;28;20049;-58
2022/07/11 13:18:10;;;;;;;1.23;0.80;;;21.70;99.90;;;;;;5031356;28;20050;-58